Time;durP1;ratioP1;P1;durP2;ratioP2;P2;SDS_P1;SDS_P2;PMS_P1;PMS_P2;Temp;Humidity;BMP_temperature;BMP_pressure;BME280_temperature;BME280_humidity;BME280_pressure;Samples;Min_cycle;Max_cycle;Signal;HPM_P1;HPM_P2
2024/03/12 00:01:04;;;;;;;;;;;9.50;99.90;;;;;;6132595;23;19927;-80
2024/03/12 00:03:30;;;;;;;;;;;9.50;99.90;;;;;;6108529;23;20297;-80
2024/03/12 00:05:59;;;;;;;;;;;9.50;99.90;;;;;;6135151;23;19912;-80
2024/03/12 00:08:27;;;;;;;;;;;9.40;99.90;;;;;;6138138;23;19996;-80
2024/03/12 00:10:53;;;;;;;;;;;9.40;99.90;;;;;;6106221;23;19937;-81
2024/03/12 00:13:19;;;;;;;;;;;9.40;99.90;;;;;;6130518;23;20012;-80
2024/03/12 00:15:46;;;;;;;;;;;9.40;99.90;;;;;;6105593;23;19916;-80
2024/03/12 00:18:12;;;;;;;;;;;9.40;99.90;;;;;;6154976;23;19920;-80
2024/03/12 00:20:39;;;;;;;;;;;9.30;99.90;;;;;;6130248;23;19921;-80
2024/03/12 00:23:06;;;;;;;;;;;9.30;99.90;;;;;;6154547;23;19920;-80
2024/03/12 00:25:33;;;;;;;;;;;9.20;99.90;;;;;;6130279;23;20292;-79
2024/03/12 00:27:59;;;;;;;;;;;9.20;99.90;;;;;;6130286;23;19983;-79
2024/03/12 00:30:25;;;;;;;;;;;9.20;99.90;;;;;;6130404;23;19916;-79
2024/03/12 00:33:10;;;;;;;;;;;9.10;99.90;;;;;;6131239;23;20643;-79
2024/03/12 00:35:42;;;;;;;;;;;9.10;99.90;;;;;;6155947;23;19940;-79
2024/03/12 00:38:08;;;;;;;;;;;9.10;99.90;;;;;;6155250;23;20003;-79
2024/03/12 00:40:34;;;;;;;;;;;9.00;99.90;;;;;;6130998;23;19971;-79
2024/03/12 00:43:02;;;;;;;;;;;9.00;99.90;;;;;;6130553;23;19918;-79
2024/03/12 00:45:36;;;;;;;;;;;8.90;99.90;;;;;;6130634;23;19923;-79
2024/03/12 00:48:05;;;;;;;;;;;8.90;99.90;;;;;;6130961;23;19927;-79
2024/03/12 00:50:32;;;;;;;;;;;8.90;99.90;;;;;;6130169;23;19936;-79
2024/03/12 00:52:57;;;;;;;;;;;8.80;99.90;;;;;;6106063;23;19924;-79
2024/03/12 00:55:24;;;;;;;;;;;8.80;99.90;;;;;;6105417;23;20194;-79
2024/03/12 00:57:50;;;;;;;;;;;8.80;99.90;;;;;;6155261;23;19909;-79
2024/03/12 01:00:16;;;;;;;;;;;8.80;99.90;;;;;;6130642;23;19971;-79
2024/03/12 01:02:44;;;;;;;;;;;8.80;99.90;;;;;;6130849;23;19935;-79
2024/03/12 01:05:12;;;;;;;;;;;8.80;99.90;;;;;;6131228;23;19924;-79
2024/03/12 01:07:38;;;;;;;;;;;8.70;99.90;;;;;;6130976;23;19921;-79
2024/03/12 01:10:05;;;;;;;;;;;8.70;99.90;;;;;;6131207;23;19913;-79
2024/03/12 01:12:32;;;;;;;;;;;8.70;99.90;;;;;;6131533;23;20297;-79
2024/03/12 01:14:58;;;;;;;;;;;8.70;99.90;;;;;;6107005;23;19924;-79
2024/03/12 01:17:23;;;;;;;;;;;8.60;99.90;;;;;;6130679;23;19987;-79
2024/03/12 01:19:49;;;;;;;;;;;8.60;99.90;;;;;;6131034;23;19913;-79
2024/03/12 01:22:15;;;;;;;;;;;8.50;99.90;;;;;;6131718;23;19976;-79
2024/03/12 01:24:40;;;;;;;;;;;8.40;99.90;;;;;;6159226;23;19912;-79
2024/03/12 01:27:06;;;;;;;;;;;8.40;99.90;;;;;;6134509;23;20298;-79
2024/03/12 01:29:33;;;;;;;;;;;8.40;99.90;;;;;;6158807;23;19964;-79
2024/03/12 01:31:59;;;;;;;;;;;8.30;99.90;;;;;;6108969;23;19917;-79
2024/03/12 01:34:25;;;;;;;;;;;8.30;99.90;;;;;;6108385;23;19986;-79
2024/03/12 01:36:53;;;;;;;;;;;8.20;99.90;;;;;;6133215;23;20255;-79
2024/03/12 01:39:25;;;;;;;;;;;8.10;99.90;;;;;;6133323;23;20528;-79
2024/03/12 01:41:53;;;;;;;;;;;8.00;99.90;;;;;;6133129;23;19908;-79
2024/03/12 01:44:19;;;;;;;;;;;8.00;99.90;;;;;;6156894;23;19916;-79
2024/03/12 01:46:46;;;;;;;;;;;7.90;99.90;;;;;;6132120;23;19932;-79
2024/03/12 01:49:12;;;;;;;;;;;7.90;99.90;;;;;;6131842;23;19912;-79
2024/03/12 01:51:38;;;;;;;;;;;7.80;99.90;;;;;;6157855;23;19913;-79
2024/03/12 01:54:04;;;;;;;;;;;7.80;99.90;;;;;;6132702;23;19913;-79
2024/03/12 01:56:33;;;;;;;;;;;7.80;99.90;;;;;;6157506;23;19920;-79
2024/03/12 01:58:58;;;;;;;;;;;7.70;99.90;;;;;;6156465;23;19924;-79
2024/03/12 02:01:24;;;;;;;;;;;7.60;99.90;;;;;;6157275;23;19912;-79
2024/03/12 02:03:51;;;;;;;;;;;7.50;99.90;;;;;;6157457;23;19916;-79
2024/03/12 02:06:23;;;;;;;;;;;7.40;99.90;;;;;;6158732;23;19923;-79
2024/03/12 02:08:49;;;;;;;;;;;7.40;99.90;;;;;;6133912;23;20328;-79
2024/03/12 02:11:17;;;;;;;;;;;7.30;99.90;;;;;;6135917;23;19912;-79
2024/03/12 02:13:43;;;;;;;;;;;7.30;99.90;;;;;;6110588;23;20192;-79
2024/03/12 02:16:10;;;;;;;;;;;7.20;99.90;;;;;;6134294;23;19912;-79
2024/03/12 02:18:37;;;;;;;;;;;7.20;99.90;;;;;;6135026;23;20289;-79
2024/03/12 02:21:03;;;;;;;;;;;7.10;99.90;;;;;;6136014;23;19984;-79
2024/03/12 02:23:38;;;;;;;;;;;7.10;99.90;;;;;;6110147;23;20302;-79
2024/03/12 02:26:04;;;;;;;;;;;7.00;99.90;;;;;;6110341;23;19912;-79
2024/03/12 02:28:31;;;;;;;;;;;7.00;99.90;;;;;;6134677;23;19912;-79
2024/03/12 02:30:57;;;;;;;;;;;7.00;99.90;;;;;;6162926;23;20305;-79
2024/03/12 02:33:24;;;;;;;;;;;7.00;99.90;;;;;;6160676;23;19909;-79
2024/03/12 02:35:49;;;;;;;;;;;6.90;99.90;;;;;;6161607;23;20010;-79
2024/03/12 02:38:15;;;;;;;;;;;6.90;99.90;;;;;;6144057;23;20338;-79
2024/03/12 02:40:41;;;;;;;;;;;7.00;99.90;;;;;;6115021;23;20246;-79
2024/03/12 02:43:06;;;;;;;;;;;7.00;99.90;;;;;;6107982;23;19913;-79
2024/03/12 02:45:32;;;;;;;;;;;7.00;99.90;;;;;;6157100;23;20373;-79
2024/03/12 02:47:58;;;;;;;;;;;7.00;99.90;;;;;;6107649;23;19972;-79
2024/03/12 02:50:24;;;;;;;;;;;7.00;99.90;;;;;;6132097;23;19913;-79
2024/03/12 02:52:50;;;;;;;;;;;6.90;99.90;;;;;;6132275;23;19912;-79
2024/03/12 02:55:19;;;;;;;;;;;6.90;99.90;;;;;;6132354;23;19912;-78
2024/03/12 02:57:44;;;;;;;;;;;6.90;99.90;;;;;;6132739;23;19912;-79
2024/03/12 03:00:14;;;;;;;;;;;6.80;99.90;;;;;;6132087;23;20258;-79
2024/03/12 03:02:40;;;;;;;;;;;6.80;99.90;;;;;;6157242;23;20347;-79
2024/03/12 03:05:15;;;;;;;;;;;6.80;99.90;;;;;;6133037;23;19912;-79
2024/03/12 03:07:41;;;;;;;;;;;6.80;99.90;;;;;;6132686;23;19923;-79
2024/03/12 03:10:06;;;;;;;;;;;6.90;99.90;;;;;;6108704;23;19913;-79
2024/03/12 03:12:32;;;;;;;;;;;6.90;99.90;;;;;;6133379;23;19908;-79
2024/03/12 03:14:58;;;;;;;;;;;6.90;99.90;;;;;;6157570;23;19972;-79
2024/03/12 03:17:23;;;;;;;;;;;6.90;99.90;;;;;;6133873;23;20295;-79
2024/03/12 03:19:49;;;;;;;;;;;6.90;99.90;;;;;;6133622;23;19917;-79
2024/03/12 03:22:15;;;;;;;;;;;6.90;99.90;;;;;;6108748;23;19909;-79
2024/03/12 03:24:40;;;;;;;;;;;6.90;99.90;;;;;;6132896;23;19916;-79
2024/03/12 03:27:07;;;;;;;;;;;6.90;99.90;;;;;;6108674;23;19967;-79
2024/03/12 03:29:33;;;;;;;;;;;6.90;99.90;;;;;;6132206;23;19988;-79
2024/03/12 03:32:00;;;;;;;;;;;6.90;99.90;;;;;;6156647;23;19912;-79
2024/03/12 03:34:31;;;;;;;;;;;6.90;99.90;;;;;;6132158;23;20036;-79
2024/03/12 03:36:57;;;;;;;;;;;6.80;99.90;;;;;;6156250;23;19908;-79
2024/03/12 03:39:24;;;;;;;;;;;6.80;99.90;;;;;;6132281;23;20476;-79
2024/03/12 03:41:50;;;;;;;;;;;6.80;99.90;;;;;;6132387;23;19908;-79
2024/03/12 03:44:16;;;;;;;;;;;6.80;99.90;;;;;;6132318;23;19916;-79
2024/03/12 03:46:43;;;;;;;;;;;6.80;99.90;;;;;;6132250;23;19916;-79
2024/03/12 03:49:09;;;;;;;;;;;6.90;99.90;;;;;;6108276;23;19920;-79
2024/03/12 03:51:35;;;;;;;;;;;6.90;99.90;;;;;;6132818;23;19908;-79
2024/03/12 03:54:03;;;;;;;;;;;6.80;99.90;;;;;;6133097;23;20172;-78
2024/03/12 03:56:29;;;;;;;;;;;6.80;99.90;;;;;;6131918;23;20003;-79
2024/03/12 03:58:58;;;;;;;;;;;6.70;99.90;;;;;;6132975;23;19913;-79
2024/03/12 04:01:24;;;;;;;;;;;6.70;99.90;;;;;;6132832;23;19908;-79
2024/03/12 04:03:54;;;;;;;;;;;6.70;99.90;;;;;;6157994;23;19964;-79
2024/03/12 04:06:22;;;;;;;;;;;6.60;99.90;;;;;;6132830;23;20564;-79
2024/03/12 04:08:53;;;;;;;;;;;6.60;99.90;;;;;;6132507;23;19923;-79
2024/03/12 04:11:20;;;;;;;;;;;6.50;99.90;;;;;;6132703;23;19922;-79
2024/03/12 04:13:46;;;;;;;;;;;6.50;99.90;;;;;;6107028;23;19978;-79
2024/03/12 04:16:12;;;;;;;;;;;6.50;99.90;;;;;;6157686;23;19974;-79
2024/03/12 04:18:38;;;;;;;;;;;6.50;99.90;;;;;;6107253;23;20357;-79
2024/03/12 04:21:04;;;;;;;;;;;6.50;99.90;;;;;;6107318;23;19912;-79
2024/03/12 04:23:29;;;;;;;;;;;6.50;99.90;;;;;;6131788;23;19917;-79
2024/03/12 04:25:55;;;;;;;;;;;6.40;99.90;;;;;;6106891;23;19990;-79
2024/03/12 04:28:22;;;;;;;;;;;6.50;99.90;;;;;;6108227;23;19919;-79
2024/03/12 04:30:51;;;;;;;;;;;6.40;99.90;;;;;;6158335;23;19913;-79
2024/03/12 04:33:17;;;;;;;;;;;6.50;99.90;;;;;;6107854;23;19912;-79
2024/03/12 04:35:44;;;;;;;;;;;6.50;99.90;;;;;;6106596;23;19908;-79
2024/03/12 04:38:09;;;;;;;;;;;6.50;99.90;;;;;;6131841;23;20527;-79
2024/03/12 04:40:35;;;;;;;;;;;6.40;99.90;;;;;;6107036;23;19919;-79
2024/03/12 04:43:02;;;;;;;;;;;6.50;99.90;;;;;;6131227;23;20261;-79
2024/03/12 04:45:28;;;;;;;;;;;6.50;99.90;;;;;;6156114;23;19924;-79
2024/03/12 04:47:54;;;;;;;;;;;6.50;99.90;;;;;;6131453;23;19936;-79
2024/03/12 04:50:22;;;;;;;;;;;6.50;99.90;;;;;;6156039;23;19909;-79
2024/03/12 04:52:48;;;;;;;;;;;6.50;99.90;;;;;;6131536;23;19912;-79
2024/03/12 04:55:15;;;;;;;;;;;6.50;99.90;;;;;;6130487;23;19908;-79
2024/03/12 04:57:41;;;;;;;;;;;6.50;99.90;;;;;;6131111;23;20465;-79
2024/03/12 05:00:13;;;;;;;;;;;6.40;99.90;;;;;;6155807;23;19928;-79
2024/03/12 05:02:39;;;;;;;;;;;6.50;99.90;;;;;;6107261;23;19912;-79
2024/03/12 05:05:07;;;;;;;;;;;6.50;99.90;;;;;;6132191;23;19928;-79
2024/03/12 05:07:33;;;;;;;;;;;6.50;99.90;;;;;;6108325;23;20286;-79
2024/03/12 05:09:59;;;;;;;;;;;6.50;99.90;;;;;;6132000;23;19964;-79
2024/03/12 05:12:25;;;;;;;;;;;6.60;99.90;;;;;;6157312;23;19908;-79
2024/03/12 05:14:51;;;;;;;;;;;6.50;99.90;;;;;;6131176;23;20309;-79
2024/03/12 05:17:17;;;;;;;;;;;6.50;99.90;;;;;;6131207;23;19942;-79
2024/03/12 05:19:43;;;;;;;;;;;6.50;99.90;;;;;;6107901;23;19913;-79
2024/03/12 05:22:09;;;;;;;;;;;6.50;99.90;;;;;;6132600;23;19923;-79
2024/03/12 05:24:35;;;;;;;;;;;6.50;99.90;;;;;;6131090;23;19908;-79
2024/03/12 05:27:01;;;;;;;;;;;6.50;99.90;;;;;;6132058;23;19940;-79
2024/03/12 05:29:36;;;;;;;;;;;6.50;99.90;;;;;;6157423;23;19919;-79
2024/03/12 05:32:17;;;;;;;;;;;6.50;99.90;;;;;;6109016;23;19908;-79
2024/03/12 05:34:52;;;;;;;;;;;6.50;99.90;;;;;;6108911;23;20338;-79
2024/03/12 05:37:40;;;;;;;;;;;6.50;99.90;;;;;;6132169;23;19913;-79
2024/03/12 05:40:16;;;;;;;;;;;6.40;99.90;;;;;;6132117;23;19917;-79
2024/03/12 05:48:14;;;;;;;;;;;6.50;99.90;;;;;;6156100;23;19901;-78
2024/03/12 05:50:40;;;;;;;;;;;6.50;99.90;;;;;;6138507;23;20577;-79
2024/03/12 05:53:09;;;;;;;;;;;6.50;99.90;;;;;;6156390;23;19909;-79
2024/03/12 05:55:35;;;;;;;;;;;6.50;99.90;;;;;;6106026;23;19984;-79
2024/03/12 05:58:01;;;;;;;;;;;6.50;99.90;;;;;;6130746;23;19913;-79
2024/03/12 06:00:26;;;;;;;;;;;6.50;99.90;;;;;;6155901;23;19923;-79
2024/03/12 06:02:53;;;;;;;;;;;6.50;99.90;;;;;;6131266;23;19967;-79
2024/03/12 06:05:19;;;;;;;;;;;6.50;99.90;;;;;;6106724;23;19951;-79
2024/03/12 06:07:45;;;;;;;;;;;6.50;99.90;;;;;;6107400;23;19923;-79
2024/03/12 06:10:11;;;;;;;;;;;6.60;99.90;;;;;;6108258;23;20301;-79
2024/03/12 06:12:37;;;;;;;;;;;6.60;99.90;;;;;;6159080;23;19980;-79
2024/03/12 06:15:06;;;;;;;;;;;6.60;99.90;;;;;;6133843;23;19908;-79
2024/03/12 06:17:33;;;;;;;;;;;6.50;99.90;;;;;;6108429;23;19912;-79
2024/03/12 06:19:59;;;;;;;;;;;6.60;99.90;;;;;;6108419;23;19917;-79
2024/03/12 06:22:25;;;;;;;;;;;6.60;99.90;;;;;;6108557;23;19915;-78
2024/03/12 06:24:50;;;;;;;;;;;6.60;99.90;;;;;;6107202;23;19976;-78
2024/03/12 06:27:18;;;;;;;;;;;6.60;99.90;;;;;;6131653;23;19940;-78
2024/03/12 06:29:49;;;;;;;;;;;6.60;99.90;;;;;;6131744;23;20368;-78
2024/03/12 06:32:19;;;;;;;;;;;6.60;99.90;;;;;;6156886;23;19908;-77
2024/03/12 06:34:48;;;;;;;;;;;6.70;99.90;;;;;;6129700;23;20098;-77
2024/03/12 06:37:13;;;;;;;;;;;6.70;99.90;;;;;;6129003;23;19924;-77
2024/03/12 06:39:41;;;;;;;;;;;6.70;99.90;;;;;;6104891;23;19920;-77
2024/03/12 06:42:08;;;;;;;;;;;6.80;99.90;;;;;;6152569;23;19913;-77
2024/03/12 06:44:40;;;;;;;;;;;6.80;99.90;;;;;;6107482;23;20053;-77
2024/03/12 06:47:07;;;;;;;;;;;6.80;99.90;;;;;;6155901;23;19947;-77
2024/03/12 06:49:33;;;;;;;;;;;6.80;99.90;;;;;;6131802;23;19924;-77
2024/03/12 06:51:59;;;;;;;;;;;6.80;99.90;;;;;;6157116;23;19916;-77
2024/03/12 06:54:26;;;;;;;;;;;6.80;99.90;;;;;;6107257;23;20020;-77
2024/03/12 06:56:53;;;;;;;;;;;6.90;99.90;;;;;;6131511;23;19912;-77
2024/03/12 06:59:21;;;;;;;;;;;6.90;99.90;;;;;;6107684;23;19944;-78
2024/03/12 07:01:53;;;;;;;;;;;6.90;99.90;;;;;;6157059;23;19913;-78
2024/03/12 07:04:23;;;;;;;;;;;7.00;99.90;;;;;;6156508;23;19920;-75
2024/03/12 07:06:52;;;;;;;;;;;7.00;99.90;;;;;;6157158;23;19957;-75
2024/03/12 07:09:26;;;;;;;;;;;7.00;99.90;;;;;;6132869;23;19909;-76
2024/03/12 07:11:54;;;;;;;;;;;7.10;99.90;;;;;;6107356;23;19913;-76
2024/03/12 07:14:25;;;;;;;;;;;7.10;99.90;;;;;;6132667;23;19928;-76
2024/03/12 07:16:53;;;;;;;;;;;7.20;99.90;;;;;;6156111;23;19983;-76
2024/03/12 07:19:22;;;;;;;;;;;7.10;99.90;;;;;;6106683;23;19920;-76
2024/03/12 07:21:50;;;;;;;;;;;7.30;99.90;;;;;;6156073;23;19983;-76
2024/03/12 07:24:17;;;;;;;;;;;7.30;99.90;;;;;;6132051;23;19944;-76
2024/03/12 07:26:49;;;;;;;;;;;7.40;99.90;;;;;;6157449;23;19970;-76
2024/03/12 07:29:15;;;;;;;;;;;7.40;99.90;;;;;;6131952;23;20287;-76
2024/03/12 07:31:41;;;;;;;;;;;7.50;99.90;;;;;;6127918;23;19909;-75
2024/03/12 07:34:07;;;;;;;;;;;7.60;99.90;;;;;;6107484;23;19984;-76
2024/03/12 07:36:33;;;;;;;;;;;7.70;99.90;;;;;;6129984;23;19909;-76
2024/03/12 07:38:59;;;;;;;;;;;7.70;99.90;;;;;;6129329;23;19912;-76
2024/03/12 07:41:26;;;;;;;;;;;7.80;99.90;;;;;;6130306;23;19912;-76
2024/03/12 07:43:52;;;;;;;;;;;7.80;99.90;;;;;;6130752;23;19908;-76
2024/03/12 07:46:19;;;;;;;;;;;7.90;99.90;;;;;;6106333;23;19912;-76
2024/03/12 07:48:45;;;;;;;;;;;7.90;99.90;;;;;;6131080;23;19916;-76
2024/03/12 07:51:11;;;;;;;;;;;8.00;99.90;;;;;;6156385;23;19912;-77
2024/03/12 07:53:39;;;;;;;;;;;8.00;99.90;;;;;;6156067;23;20030;-77
2024/03/12 07:56:06;;;;;;;;;;;8.10;99.90;;;;;;6106368;23;19932;-76
2024/03/12 07:58:33;;;;;;;;;;;8.10;99.90;;;;;;6107047;23;19931;-76
2024/03/12 08:00:59;;;;;;;;;;;8.20;99.90;;;;;;6156652;23;20350;-77
2024/03/12 08:03:28;;;;;;;;;;;8.20;99.90;;;;;;6103025;23;19928;-75
2024/03/12 08:05:54;;;;;;;;;;;8.30;99.90;;;;;;6127029;23;19976;-76
2024/03/12 08:08:20;;;;;;;;;;;8.30;99.90;;;;;;6127525;23;20188;-76
2024/03/12 08:10:46;;;;;;;;;;;8.40;99.90;;;;;;6102832;23;19929;-77
2024/03/12 08:13:12;;;;;;;;;;;8.40;99.90;;;;;;6127824;23;19912;-76
2024/03/12 08:15:39;;;;;;;;;;;8.40;99.90;;;;;;6151450;23;19940;-76
2024/03/12 08:18:05;;;;;;;;;;;8.50;99.90;;;;;;6103560;23;19912;-76
2024/03/12 08:20:31;;;;;;;;;;;8.60;99.90;;;;;;6102409;23;19924;-76
2024/03/12 08:22:59;;;;;;;;;;;8.50;99.90;;;;;;6152156;23;19913;-76
2024/03/12 08:25:25;;;;;;;;;;;8.50;99.90;;;;;;6127782;23;20287;-76
2024/03/12 08:27:51;;;;;;;;;;;8.40;99.90;;;;;;6126403;23;20584;-76
2024/03/12 08:30:18;;;;;;;;;;;8.40;99.90;;;;;;6126605;23;19932;-76
2024/03/12 08:32:44;;;;;;;;;;;8.60;99.90;;;;;;6127509;23;19909;-77
2024/03/12 08:35:11;;;;;;;;;;;8.60;99.90;;;;;;6126545;23;19916;-76
2024/03/12 08:37:38;;;;;;;;;;;8.70;99.90;;;;;;6126820;23;20230;-76
2024/03/12 08:40:07;;;;;;;;;;;8.70;99.90;;;;;;6101854;23;20354;-76
2024/03/12 08:42:33;;;;;;;;;;;8.70;99.90;;;;;;6126766;23;20515;-76
2024/03/12 08:44:59;;;;;;;;;;;8.80;99.90;;;;;;6127171;23;19909;-76
2024/03/12 08:47:26;;;;;;;;;;;8.80;99.90;;;;;;6127358;23;19920;-76
2024/03/12 08:49:52;;;;;;;;;;;8.90;99.90;;;;;;6102752;23;19916;-76
2024/03/12 08:52:18;;;;;;;;;;;9.00;99.90;;;;;;6151925;23;19972;-76
2024/03/12 08:54:44;;;;;;;;;;;9.00;99.90;;;;;;6127267;23;19912;-76
2024/03/12 08:57:11;;;;;;;;;;;8.90;99.90;;;;;;6126745;23;19923;-76
2024/03/12 08:59:37;;;;;;;;;;;9.00;99.90;;;;;;6127265;23;19917;-76
2024/03/12 09:02:02;;;;;;;;;;;9.00;99.90;;;;;;6102139;23;19917;-76
2024/03/12 09:04:30;;;;;;;;;;;9.00;99.90;;;;;;6125908;23;19956;-76
2024/03/12 09:06:57;;;;;;;;;;;9.10;99.90;;;;;;6126452;23;20207;-76
2024/03/12 09:09:26;;;;;;;;;;;9.20;99.90;;;;;;6151119;23;19913;-80
2024/03/12 09:11:53;;;;;;;;;;;9.10;99.90;;;;;;6129454;23;19928;-80
2024/03/12 09:14:21;;;;;;;;;;;9.20;99.90;;;;;;6103502;23;19978;-80
2024/03/12 09:16:48;;;;;;;;;;;9.20;99.90;;;;;;6128548;23;19983;-80
2024/03/12 09:19:15;;;;;;;;;;;9.30;99.90;;;;;;6103438;23;19968;-80
2024/03/12 09:21:42;;;;;;;;;;;9.30;99.90;;;;;;6127508;23;19924;-79
2024/03/12 09:24:09;;;;;;;;;;;9.30;99.90;;;;;;6126991;23;20302;-79
2024/03/12 09:26:35;;;;;;;;;;;9.40;99.90;;;;;;6103972;23;19931;-79
2024/03/12 09:29:01;;;;;;;;;;;9.40;99.90;;;;;;6131833;23;19940;-80
2024/03/12 09:31:27;;;;;;;;;;;9.40;99.90;;;;;;6108938;23;19913;-80
2024/03/12 09:33:54;;;;;;;;;;;9.40;99.90;;;;;;6107066;23;19909;-80
2024/03/12 09:36:20;;;;;;;;;;;9.50;99.90;;;;;;6129014;23;19917;-80
2024/03/12 09:38:50;;;;;;;;;;;9.50;99.90;;;;;;6130246;23;20284;-80
2024/03/12 09:41:16;;;;;;;;;;;9.50;99.90;;;;;;6154963;23;19968;-80
2024/03/12 09:43:44;;;;;;;;;;;9.60;99.90;;;;;;6107393;23;19937;-80
2024/03/12 09:46:11;;;;;;;;;;;9.60;99.90;;;;;;6130855;23;19920;-80
2024/03/12 09:48:38;;;;;;;;;;;9.70;99.90;;;;;;6129568;23;19940;-80
2024/03/12 09:51:05;;;;;;;;;;;9.70;99.90;;;;;;6133658;23;19967;-80
2024/03/12 09:53:31;;;;;;;;;;;9.70;99.90;;;;;;6155165;23;19908;-80
2024/03/12 09:56:03;;;;;;;;;;;9.80;99.90;;;;;;6128577;23;19939;-80
2024/03/12 09:58:29;;;;;;;;;;;9.70;99.90;;;;;;6127186;23;19919;-80
2024/03/12 10:00:55;;;;;;;;;;;9.80;99.90;;;;;;6102667;23;19913;-79
2024/03/12 10:03:21;;;;;;;;;;;9.80;99.90;;;;;;6127347;23;19932;-78
2024/03/12 10:05:46;;;;;;;;;;;9.80;99.90;;;;;;6127015;23;19913;-78
2024/03/12 10:08:16;;;;;;;;;;;9.80;99.90;;;;;;6127462;23;19908;-77
2024/03/12 10:10:43;;;;;;;;;;;9.80;99.90;;;;;;6127246;23;19913;-77
2024/03/12 10:13:14;;;;;;;;;;;9.80;99.90;;;;;;6127540;23;19909;-77
2024/03/12 10:15:50;;;;;;;;;;;9.90;99.90;;;;;;6125405;23;19943;-77
2024/03/12 10:18:16;;;;;;;;;;;9.90;99.90;;;;;;6103275;23;19920;-78
2024/03/12 10:20:45;;;;;;;;;;;9.90;99.90;;;;;;6103034;23;19913;-77
2024/03/12 10:23:15;;;;;;;;;;;10.00;99.90;;;;;;6151727;23;19920;-78
2024/03/12 10:25:48;;;;;;;;;;;10.10;99.90;;;;;;6126783;23;19915;-77
2024/03/12 10:28:14;;;;;;;;;;;10.10;99.90;;;;;;6150824;23;20210;-77
2024/03/12 10:30:41;;;;;;;;;;;10.20;99.90;;;;;;6151647;23;19913;-77
2024/03/12 10:33:11;;;;;;;;;;;10.30;99.90;;;;;;6128723;23;19920;-76
2024/03/12 10:35:37;;;;;;;;;;;10.20;99.90;;;;;;6102594;23;19932;-76
2024/03/12 10:38:03;;;;;;;;;;;10.30;99.90;;;;;;6102960;23;19972;-77
2024/03/12 10:40:29;;;;;;;;;;;10.30;99.90;;;;;;6151292;23;19968;-77
2024/03/12 10:43:00;;;;;;;;;;;10.30;99.90;;;;;;6101775;23;19913;-77
2024/03/12 10:45:27;;;;;;;;;;;10.30;99.90;;;;;;6127015;23;19909;-77
2024/03/12 10:47:53;;;;;;;;;;;10.20;99.90;;;;;;6127579;23;20639;-78
2024/03/12 10:50:20;;;;;;;;;;;10.30;99.90;;;;;;6151448;23;20128;-77
2024/03/12 10:52:46;;;;;;;;;;;10.20;99.90;;;;;;6126794;23;20319;-77
2024/03/12 10:55:20;;;;;;;;;;;10.30;99.90;;;;;;6151214;23;19924;-77
2024/03/12 10:57:49;;;;;;;;;;;10.30;99.90;;;;;;6125979;23;20279;-77
2024/03/12 11:00:20;;;;;;;;;;;10.30;99.90;;;;;;6127748;23;19975;-77
2024/03/12 11:02:49;;;;;;;;;;;10.40;99.90;;;;;;6131299;23;19916;-77
2024/03/12 11:05:22;;;;;;;;;;;10.30;99.90;;;;;;6131642;23;19936;-77
2024/03/12 11:07:51;;;;;;;;;;;10.40;99.90;;;;;;6107330;23;19986;-77
2024/03/12 11:10:17;;;;;;;;;;;10.40;99.90;;;;;;6131832;23;19912;-77
2024/03/12 11:12:43;;;;;;;;;;;10.40;99.90;;;;;;6107283;23;20254;-77
2024/03/12 11:15:09;;;;;;;;;;;10.40;99.90;;;;;;6155767;23;19916;-77
2024/03/12 11:17:48;;;;;;;;;;;10.40;99.90;;;;;;6156748;23;19919;-77
2024/03/12 11:20:22;;;;;;;;;;;10.30;99.90;;;;;;6132035;23;20243;-77
2024/03/12 11:22:48;;;;;;;;;;;10.40;99.90;;;;;;6132290;23;19976;-77
2024/03/12 11:25:17;;;;;;;;;;;10.30;99.90;;;;;;6131073;23;19924;-77
2024/03/12 11:27:45;;;;;;;;;;;10.40;99.90;;;;;;6155457;23;19920;-77
2024/03/12 11:30:14;;;;;;;;;;;10.40;99.90;;;;;;6130439;23;19971;-76
2024/03/12 11:32:48;;;;;;;;;;;10.40;99.90;;;;;;6155946;23;20310;-76
2024/03/12 11:35:17;;;;;;;;;;;10.40;99.90;;;;;;6130841;23;20000;-75
2024/03/12 11:37:45;;;;;;;;;;;10.40;99.90;;;;;;6155883;23;19912;-76
2024/03/12 11:40:27;;;;;;;;;;;10.40;99.90;;;;;;6155923;23;19992;-76
2024/03/12 11:42:59;;;;;;;;;;;10.40;99.90;;;;;;6106329;23;19908;-76
2024/03/12 11:45:34;;;;;;;;;;;10.40;99.90;;;;;;6130521;23;19912;-76
2024/03/12 11:48:00;;;;;;;;;;;10.40;99.90;;;;;;6105942;23;19916;-76
2024/03/12 11:50:32;;;;;;;;;;;10.40;99.90;;;;;;6155035;23;19909;-76
2024/03/12 11:53:20;;;;;;;;;;;10.30;99.90;;;;;;6154690;23;19939;-76
2024/03/12 11:56:05;;;;;;;;;;;10.30;99.90;;;;;;6131540;23;19909;-76
2024/03/12 11:58:31;;;;;;;;;;;10.30;99.90;;;;;;6156572;23;19996;-77
2024/03/12 12:00:57;;;;;;;;;;;10.30;99.90;;;;;;6155365;23;19942;-77
2024/03/12 12:03:23;;;;;;;;;;;10.30;99.90;;;;;;6106078;23;19924;-76
2024/03/12 12:05:50;;;;;;;;;;;10.20;99.90;;;;;;6131197;23;19979;-76
2024/03/12 12:08:18;;;;;;;;;;;10.20;99.90;;;;;;6130610;23;20298;-76
2024/03/12 12:10:59;;;;;;;;;;;10.20;99.90;;;;;;6131736;23;19909;-77
2024/03/12 12:13:25;;;;;;;;;;;10.20;99.90;;;;;;6130978;23;19909;-77
2024/03/12 12:16:01;;;;;;;;;;;10.20;99.90;;;;;;6155578;23;19932;-77
2024/03/12 12:18:30;;;;;;;;;;;10.10;99.90;;;;;;6155190;23;19974;-76
2024/03/12 12:21:10;;;;;;;;;;;10.10;99.90;;;;;;6154811;23;19924;-76
2024/03/12 12:23:38;;;;;;;;;;;10.10;99.90;;;;;;6130241;23;19979;-76
2024/03/12 12:26:07;;;;;;;;;;;10.20;99.90;;;;;;6154904;23;19919;-76
2024/03/12 12:28:35;;;;;;;;;;;10.20;99.90;;;;;;6130128;23;20252;-76
2024/03/12 12:31:01;;;;;;;;;;;10.20;99.90;;;;;;6130056;23;19920;-76
2024/03/12 12:33:31;;;;;;;;;;;10.20;99.90;;;;;;6130351;23;19908;-76
2024/03/12 12:36:04;;;;;;;;;;;10.20;99.90;;;;;;6154565;23;19913;-76
2024/03/12 12:38:30;;;;;;;;;;;10.10;99.90;;;;;;6154196;23;19917;-76
2024/03/12 12:40:55;;;;;;;;;;;10.10;99.90;;;;;;6130140;23;20245;-76
2024/03/12 12:43:21;;;;;;;;;;;10.10;99.90;;;;;;6155174;23;19923;-76
2024/03/12 12:45:48;;;;;;;;;;;10.20;99.90;;;;;;6155092;23;19939;-76
2024/03/12 12:48:17;;;;;;;;;;;10.20;99.90;;;;;;6130534;23;19912;-76
2024/03/12 12:50:43;;;;;;;;;;;10.20;99.90;;;;;;6105701;23;20210;-76
2024/03/12 12:53:09;;;;;;;;;;;10.20;99.90;;;;;;6130555;23;19909;-76
2024/03/12 12:55:37;;;;;;;;;;;10.20;99.90;;;;;;6155196;23;19908;-76
2024/03/12 12:58:06;;;;;;;;;;;10.10;99.90;;;;;;6130701;23;19919;-77
2024/03/12 13:00:35;;;;;;;;;;;10.10;99.90;;;;;;6131529;23;20283;-77
2024/03/12 13:03:17;;;;;;;;;;;10.20;99.90;;;;;;6130514;23;19947;-76
2024/03/12 13:05:44;;;;;;;;;;;10.20;99.90;;;;;;6129570;23;19909;-75
2024/03/12 13:08:22;;;;;;;;;;;10.10;99.90;;;;;;6129695;23;19912;-76
2024/03/12 13:10:59;;;;;;;;;;;10.10;99.90;;;;;;6104622;23;19963;-76
2024/03/12 13:13:25;;;;;;;;;;;10.10;99.90;;;;;;6105691;23;19975;-76
2024/03/12 13:15:51;;;;;;;;;;;10.20;99.90;;;;;;6128564;23;19913;-76
2024/03/12 13:18:19;;;;;;;;;;;10.20;99.90;;;;;;6153518;23;19932;-77
2024/03/12 13:20:49;;;;;;;;;;;10.10;99.90;;;;;;6105982;23;19920;-76
2024/03/12 13:23:16;;;;;;;;;;;10.10;99.90;;;;;;6156351;23;20024;-76
2024/03/12 13:25:45;;;;;;;;;;;10.10;99.90;;;;;;6156584;23;19923;-76
2024/03/12 13:28:17;;;;;;;;;;;10.10;99.90;;;;;;6106309;23;19912;-76
2024/03/12 13:30:46;;;;;;;;;;;10.10;99.90;;;;;;6156914;23;19925;-76
2024/03/12 13:33:18;;;;;;;;;;;10.20;99.90;;;;;;6107640;23;20273;-76
2024/03/12 13:35:44;;;;;;;;;;;10.20;99.90;;;;;;6158581;23;19932;-76
2024/03/12 13:38:19;;;;;;;;;;;10.20;99.90;;;;;;6157553;23;19967;-77
2024/03/12 13:40:45;;;;;;;;;;;10.30;99.90;;;;;;6158128;23;19927;-77
2024/03/12 13:43:11;;;;;;;;;;;10.30;99.90;;;;;;6132950;23;19971;-76
2024/03/12 13:45:38;;;;;;;;;;;10.30;99.90;;;;;;6131883;23;20556;-78
2024/03/12 13:48:06;;;;;;;;;;;10.30;99.90;;;;;;6156260;23;19920;-76
2024/03/12 13:50:32;;;;;;;;;;;10.30;99.90;;;;;;6132137;23;19913;-76
2024/03/12 13:52:58;;;;;;;;;;;10.20;99.90;;;;;;6131770;23;20532;-76
2024/03/12 13:55:26;;;;;;;;;;;10.20;99.90;;;;;;6156657;23;19955;-76
2024/03/12 13:57:51;;;;;;;;;;;10.10;99.90;;;;;;6132616;23;19909;-76
2024/03/12 14:00:17;;;;;;;;;;;10.20;99.90;;;;;;6108689;23;20407;-77
2024/03/12 14:02:44;;;;;;;;;;;10.20;99.90;;;;;;6107943;23;19920;-76
2024/03/12 14:05:12;;;;;;;;;;;10.20;99.90;;;;;;6132618;23;19996;-76
2024/03/12 14:07:42;;;;;;;;;;;10.20;99.90;;;;;;6157517;23;19939;-75
2024/03/12 14:10:08;;;;;;;;;;;10.20;99.90;;;;;;6158528;23;19920;-79
2024/03/12 14:12:35;;;;;;;;;;;10.20;99.90;;;;;;6133637;23;19932;-78
2024/03/12 14:15:05;;;;;;;;;;;10.20;99.90;;;;;;6133509;23;19913;-79
2024/03/12 14:17:31;;;;;;;;;;;10.20;99.90;;;;;;6107707;23;19913;-80
2024/03/12 14:19:57;;;;;;;;;;;10.20;99.90;;;;;;6156774;23;19924;-79
2024/03/12 14:22:22;;;;;;;;;;;10.20;99.90;;;;;;6132070;23;19908;-80
2024/03/12 14:24:48;;;;;;;;;;;10.20;99.90;;;;;;6132116;23;19913;-79
2024/03/12 14:27:14;;;;;;;;;;;10.20;99.90;;;;;;6132238;23;19909;-79
2024/03/12 14:29:40;;;;;;;;;;;10.20;99.90;;;;;;6133309;23;19912;-79
2024/03/12 14:32:10;;;;;;;;;;;10.20;99.90;;;;;;6158140;23;19922;-79
2024/03/12 14:34:36;;;;;;;;;;;10.20;99.90;;;;;;6134124;23;19909;-79